sensor_id;sensor_type;location;lat;lon;timestamp;P1;durP1;ratioP1;P2;durP2;ratioP2
2191;SDS011;1102;49.718;11.902;2023-03-08T00:02:04;8.17;;;5.50;;
2191;SDS011;1102;49.718;11.902;2023-03-08T00:04:30;5.40;;;4.50;;
2191;SDS011;1102;49.718;11.902;2023-03-08T00:06:57;7.23;;;4.10;;
2191;SDS011;1102;49.718;11.902;2023-03-08T00:09:24;5.47;;;4.63;;
2191;SDS011;1102;49.718;11.902;2023-03-08T00:11:51;7.07;;;5.20;;
2191;SDS011;1102;49.718;11.902;2023-03-08T00:14:17;7.50;;;5.30;;
2191;SDS011;1102;49.718;11.902;2023-03-08T00:16:45;7.70;;;5.63;;
2191;SDS011;1102;49.718;11.902;2023-03-08T00:19:12;9.23;;;6.63;;
2191;SDS011;1102;49.718;11.902;2023-03-08T00:21:41;6.37;;;4.37;;
2191;SDS011;1102;49.718;11.902;2023-03-08T00:24:09;7.87;;;5.70;;
2191;SDS011;1102;49.718;11.902;2023-03-08T00:26:37;8.40;;;5.63;;
2191;SDS011;1102;49.718;11.902;2023-03-08T00:29:04;7.67;;;6.33;;
2191;SDS011;1102;49.718;11.902;2023-03-08T00:31:30;7.33;;;5.27;;
2191;SDS011;1102;49.718;11.902;2023-03-08T00:33:57;6.33;;;5.73;;
2191;SDS011;1102;49.718;11.902;2023-03-08T00:36:23;11.47;;;7.63;;
2191;SDS011;1102;49.718;11.902;2023-03-08T00:38:50;6.77;;;5.50;;
2191;SDS011;1102;49.718;11.902;2023-03-08T00:41:18;8.03;;;5.80;;
2191;SDS011;1102;49.718;11.902;2023-03-08T00:43:45;11.10;;;5.43;;
2191;SDS011;1102;49.718;11.902;2023-03-08T00:46:12;7.10;;;4.13;;
2191;SDS011;1102;49.718;11.902;2023-03-08T00:48:39;5.47;;;4.13;;
2191;SDS011;1102;49.718;11.902;2023-03-08T00:51:06;7.10;;;4.23;;
2191;SDS011;1102;49.718;11.902;2023-03-08T00:53:34;4.97;;;4.57;;
2191;SDS011;1102;49.718;11.902;2023-03-08T00:56:01;5.30;;;4.87;;
2191;SDS011;1102;49.718;11.902;2023-03-08T00:58:30;13.47;;;6.67;;
2191;SDS011;1102;49.718;11.902;2023-03-08T01:00:57;15.73;;;6.67;;
2191;SDS011;1102;49.718;11.902;2023-03-08T01:03:25;7.27;;;5.30;;
2191;SDS011;1102;49.718;11.902;2023-03-08T01:05:54;7.80;;;6.30;;
2191;SDS011;1102;49.718;11.902;2023-03-08T01:08:22;7.37;;;5.87;;
2191;SDS011;1102;49.718;11.902;2023-03-08T01:10:55;7.13;;;4.50;;
2191;SDS011;1102;49.718;11.902;2023-03-08T01:13:24;6.83;;;4.70;;
2191;SDS011;1102;49.718;11.902;2023-03-08T01:15:53;5.37;;;4.87;;
2191;SDS011;1102;49.718;11.902;2023-03-08T01:18:20;6.10;;;5.37;;
2191;SDS011;1102;49.718;11.902;2023-03-08T01:21:02;14.60;;;5.97;;
2191;SDS011;1102;49.718;11.902;2023-03-08T01:23:30;7.40;;;5.13;;
2191;SDS011;1102;49.718;11.902;2023-03-08T01:25:59;7.20;;;5.63;;
2191;SDS011;1102;49.718;11.902;2023-03-08T01:28:27;6.50;;;5.80;;
2191;SDS011;1102;49.718;11.902;2023-03-08T01:30:59;6.90;;;5.70;;
2191;SDS011;1102;49.718;11.902;2023-03-08T01:33:27;8.00;;;4.20;;
2191;SDS011;1102;49.718;11.902;2023-03-08T01:35:53;6.93;;;5.50;;
2191;SDS011;1102;49.718;11.902;2023-03-08T01:38:20;8.50;;;5.73;;
2191;SDS011;1102;49.718;11.902;2023-03-08T01:40:54;7.00;;;5.53;;
2191;SDS011;1102;49.718;11.902;2023-03-08T01:43:27;5.87;;;5.37;;
2191;SDS011;1102;49.718;11.902;2023-03-08T01:54:20;8.60;;;4.30;;
2191;SDS011;1102;49.718;11.902;2023-03-08T01:56:48;7.97;;;5.13;;
2191;SDS011;1102;49.718;11.902;2023-03-08T01:59:16;10.07;;;7.10;;
2191;SDS011;1102;49.718;11.902;2023-03-08T02:01:46;6.37;;;4.90;;
2191;SDS011;1102;49.718;11.902;2023-03-08T02:04:13;5.00;;;3.93;;
2191;SDS011;1102;49.718;11.902;2023-03-08T02:06:40;9.23;;;4.90;;
2191;SDS011;1102;49.718;11.902;2023-03-08T02:09:09;8.50;;;4.97;;
2191;SDS011;1102;49.718;11.902;2023-03-08T02:11:36;7.80;;;4.93;;
2191;SDS011;1102;49.718;11.902;2023-03-08T02:14:06;12.10;;;5.63;;
2191;SDS011;1102;49.718;11.902;2023-03-08T02:16:35;8.27;;;5.60;;
2191;SDS011;1102;49.718;11.902;2023-03-08T02:19:03;10.40;;;6.50;;
2191;SDS011;1102;49.718;11.902;2023-03-08T02:21:36;7.03;;;5.13;;
2191;SDS011;1102;49.718;11.902;2023-03-08T02:24:15;8.80;;;5.73;;
2191;SDS011;1102;49.718;11.902;2023-03-08T02:26:44;6.23;;;4.83;;
2191;SDS011;1102;49.718;11.902;2023-03-08T02:29:11;7.87;;;5.77;;
2191;SDS011;1102;49.718;11.902;2023-03-08T02:31:38;7.10;;;5.07;;
2191;SDS011;1102;49.718;11.902;2023-03-08T02:34:06;11.50;;;6.40;;
2191;SDS011;1102;49.718;11.902;2023-03-08T02:36:34;10.33;;;5.57;;
2191;SDS011;1102;49.718;11.902;2023-03-08T02:39:00;10.13;;;6.90;;
2191;SDS011;1102;49.718;11.902;2023-03-08T02:41:27;4.70;;;3.50;;
2191;SDS011;1102;49.718;11.902;2023-03-08T02:43:54;7.90;;;6.90;;
2191;SDS011;1102;49.718;11.902;2023-03-08T02:46:20;13.23;;;5.93;;
2191;SDS011;1102;49.718;11.902;2023-03-08T02:48:47;7.40;;;5.37;;
2191;SDS011;1102;49.718;11.902;2023-03-08T02:51:15;8.47;;;7.10;;
2191;SDS011;1102;49.718;11.902;2023-03-08T02:53:41;7.37;;;4.47;;
2191;SDS011;1102;49.718;11.902;2023-03-08T02:56:08;5.97;;;4.23;;
2191;SDS011;1102;49.718;11.902;2023-03-08T02:58:35;7.57;;;5.60;;
2191;SDS011;1102;49.718;11.902;2023-03-08T03:01:02;9.80;;;6.83;;
2191;SDS011;1102;49.718;11.902;2023-03-08T03:03:28;7.53;;;5.40;;
2191;SDS011;1102;49.718;11.902;2023-03-08T03:05:56;3.67;;;3.30;;
2191;SDS011;1102;49.718;11.902;2023-03-08T03:08:29;6.63;;;5.93;;
2191;SDS011;1102;49.718;11.902;2023-03-08T03:10:56;5.70;;;5.10;;
2191;SDS011;1102;49.718;11.902;2023-03-08T03:13:23;9.67;;;6.07;;
2191;SDS011;1102;49.718;11.902;2023-03-08T03:15:50;7.67;;;5.83;;
2191;SDS011;1102;49.718;11.902;2023-03-08T03:18:17;13.10;;;6.63;;
2191;SDS011;1102;49.718;11.902;2023-03-08T03:20:44;5.73;;;3.87;;
2191;SDS011;1102;49.718;11.902;2023-03-08T03:23:10;7.57;;;5.90;;
2191;SDS011;1102;49.718;11.902;2023-03-08T03:25:46;6.10;;;5.13;;
2191;SDS011;1102;49.718;11.902;2023-03-08T03:28:16;9.30;;;6.13;;
2191;SDS011;1102;49.718;11.902;2023-03-08T03:30:43;11.97;;;6.23;;
2191;SDS011;1102;49.718;11.902;2023-03-08T03:33:12;7.80;;;5.97;;
2191;SDS011;1102;49.718;11.902;2023-03-08T03:35:38;12.87;;;6.87;;
2191;SDS011;1102;49.718;11.902;2023-03-08T03:38:07;9.80;;;6.20;;
2191;SDS011;1102;49.718;11.902;2023-03-08T03:40:34;9.13;;;6.00;;
2191;SDS011;1102;49.718;11.902;2023-03-08T03:43:02;8.47;;;5.93;;
2191;SDS011;1102;49.718;11.902;2023-03-08T03:45:29;8.93;;;6.50;;
2191;SDS011;1102;49.718;11.902;2023-03-08T03:47:55;7.70;;;5.50;;
2191;SDS011;1102;49.718;11.902;2023-03-08T03:50:24;8.07;;;5.93;;
2191;SDS011;1102;49.718;11.902;2023-03-08T03:52:56;11.43;;;7.20;;
2191;SDS011;1102;49.718;11.902;2023-03-08T03:55:23;8.97;;;5.00;;
2191;SDS011;1102;49.718;11.902;2023-03-08T03:57:50;10.60;;;6.90;;
2191;SDS011;1102;49.718;11.902;2023-03-08T04:00:17;8.13;;;6.23;;
2191;SDS011;1102;49.718;11.902;2023-03-08T04:02:52;11.47;;;6.17;;
2191;SDS011;1102;49.718;11.902;2023-03-08T04:05:20;8.10;;;5.80;;
2191;SDS011;1102;49.718;11.902;2023-03-08T04:07:50;9.13;;;5.43;;
2191;SDS011;1102;49.718;11.902;2023-03-08T04:10:18;11.93;;;7.30;;
2191;SDS011;1102;49.718;11.902;2023-03-08T04:12:48;7.57;;;5.93;;
2191;SDS011;1102;49.718;11.902;2023-03-08T04:15:17;10.60;;;6.50;;
2191;SDS011;1102;49.718;11.902;2023-03-08T04:17:44;7.67;;;6.17;;
2191;SDS011;1102;49.718;11.902;2023-03-08T04:20:11;11.93;;;6.47;;
2191;SDS011;1102;49.718;11.902;2023-03-08T04:22:45;11.33;;;6.60;;
2191;SDS011;1102;49.718;11.902;2023-03-08T04:25:17;6.40;;;5.77;;
2191;SDS011;1102;49.718;11.902;2023-03-08T04:27:51;7.20;;;5.00;;
2191;SDS011;1102;49.718;11.902;2023-03-08T04:30:19;7.23;;;5.20;;
2191;SDS011;1102;49.718;11.902;2023-03-08T04:32:45;10.33;;;6.57;;
2191;SDS011;1102;49.718;11.902;2023-03-08T04:35:12;7.70;;;5.90;;
2191;SDS011;1102;49.718;11.902;2023-03-08T04:37:41;7.27;;;6.00;;
2191;SDS011;1102;49.718;11.902;2023-03-08T04:40:11;7.80;;;5.83;;
2191;SDS011;1102;49.718;11.902;2023-03-08T04:42:51;9.20;;;6.23;;
2191;SDS011;1102;49.718;11.902;2023-03-08T04:45:23;7.77;;;6.10;;
2191;SDS011;1102;49.718;11.902;2023-03-08T04:47:53;8.57;;;5.80;;
2191;SDS011;1102;49.718;11.902;2023-03-08T04:50:19;8.77;;;6.00;;
2191;SDS011;1102;49.718;11.902;2023-03-08T04:52:46;7.63;;;5.80;;
2191;SDS011;1102;49.718;11.902;2023-03-08T04:55:13;7.40;;;5.90;;
2191;SDS011;1102;49.718;11.902;2023-03-08T04:57:40;7.90;;;5.43;;
2191;SDS011;1102;49.718;11.902;2023-03-08T05:00:07;8.87;;;5.67;;
2191;SDS011;1102;49.718;11.902;2023-03-08T05:02:37;12.40;;;8.63;;
2191;SDS011;1102;49.718;11.902;2023-03-08T05:05:10;8.20;;;5.60;;
2191;SDS011;1102;49.718;11.902;2023-03-08T05:07:36;13.57;;;6.80;;
2191;SDS011;1102;49.718;11.902;2023-03-08T05:10:03;8.60;;;4.90;;
2191;SDS011;1102;49.718;11.902;2023-03-08T05:12:30;11.27;;;6.97;;
2191;SDS011;1102;49.718;11.902;2023-03-08T05:14:59;9.00;;;6.37;;
2191;SDS011;1102;49.718;11.902;2023-03-08T05:17:26;8.30;;;5.97;;
2191;SDS011;1102;49.718;11.902;2023-03-08T05:19:53;8.00;;;6.70;;
2191;SDS011;1102;49.718;11.902;2023-03-08T05:22:25;7.57;;;5.63;;
2191;SDS011;1102;49.718;11.902;2023-03-08T05:24:55;6.73;;;5.50;;
2191;SDS011;1102;49.718;11.902;2023-03-08T05:27:22;9.80;;;6.07;;
2191;SDS011;1102;49.718;11.902;2023-03-08T05:29:50;6.13;;;5.10;;
2191;SDS011;1102;49.718;11.902;2023-03-08T05:32:17;6.70;;;5.67;;
2191;SDS011;1102;49.718;11.902;2023-03-08T05:34:44;11.17;;;6.43;;
2191;SDS011;1102;49.718;11.902;2023-03-08T05:37:17;16.53;;;9.83;;
2191;SDS011;1102;49.718;11.902;2023-03-08T05:39:44;7.93;;;6.60;;
2191;SDS011;1102;49.718;11.902;2023-03-08T05:42:15;11.90;;;7.23;;
2191;SDS011;1102;49.718;11.902;2023-03-08T05:44:44;10.20;;;6.73;;
2191;SDS011;1102;49.718;11.902;2023-03-08T05:47:14;9.20;;;6.20;;
2191;SDS011;1102;49.718;11.902;2023-03-08T05:49:40;9.33;;;6.77;;
2191;SDS011;1102;49.718;11.902;2023-03-08T05:52:07;7.53;;;6.60;;
2191;SDS011;1102;49.718;11.902;2023-03-08T05:54:34;8.80;;;6.50;;
2191;SDS011;1102;49.718;11.902;2023-03-08T05:57:06;5.90;;;5.30;;
2191;SDS011;1102;49.718;11.902;2023-03-08T05:59:34;8.60;;;5.87;;
2191;SDS011;1102;49.718;11.902;2023-03-08T06:02:02;9.93;;;7.03;;
2191;SDS011;1102;49.718;11.902;2023-03-08T06:04:36;8.50;;;6.67;;
2191;SDS011;1102;49.718;11.902;2023-03-08T06:07:03;7.53;;;6.67;;
2191;SDS011;1102;49.718;11.902;2023-03-08T06:09:40;9.37;;;6.40;;
2191;SDS011;1102;49.718;11.902;2023-03-08T06:12:11;10.50;;;6.10;;
2191;SDS011;1102;49.718;11.902;2023-03-08T06:14:38;8.17;;;6.67;;
2191;SDS011;1102;49.718;11.902;2023-03-08T06:17:05;7.80;;;6.60;;
2191;SDS011;1102;49.718;11.902;2023-03-08T06:19:36;7.57;;;6.87;;
2191;SDS011;1102;49.718;11.902;2023-03-08T06:22:02;7.50;;;6.27;;
2191;SDS011;1102;49.718;11.902;2023-03-08T06:24:30;8.27;;;6.63;;
2191;SDS011;1102;49.718;11.902;2023-03-08T06:26:59;9.33;;;6.40;;
2191;SDS011;1102;49.718;11.902;2023-03-08T06:29:25;7.33;;;6.60;;
2191;SDS011;1102;49.718;11.902;2023-03-08T06:31:53;9.20;;;6.73;;
2191;SDS011;1102;49.718;11.902;2023-03-08T06:34:20;12.50;;;8.50;;
2191;SDS011;1102;49.718;11.902;2023-03-08T06:36:49;12.30;;;9.43;;
2191;SDS011;1102;49.718;11.902;2023-03-08T06:39:18;8.90;;;7.83;;
2191;SDS011;1102;49.718;11.902;2023-03-08T06:41:44;9.40;;;7.47;;
2191;SDS011;1102;49.718;11.902;2023-03-08T06:44:12;10.50;;;8.10;;
2191;SDS011;1102;49.718;11.902;2023-03-08T06:46:39;11.40;;;7.03;;
2191;SDS011;1102;49.718;11.902;2023-03-08T06:49:05;10.43;;;7.00;;
2191;SDS011;1102;49.718;11.902;2023-03-08T06:51:34;8.50;;;6.50;;
2191;SDS011;1102;49.718;11.902;2023-03-08T06:54:01;14.20;;;9.00;;
2191;SDS011;1102;49.718;11.902;2023-03-08T06:56:28;10.90;;;8.13;;
2191;SDS011;1102;49.718;11.902;2023-03-08T06:58:55;12.53;;;7.90;;
2191;SDS011;1102;49.718;11.902;2023-03-08T07:01:22;9.60;;;6.53;;
2191;SDS011;1102;49.718;11.902;2023-03-08T07:03:48;8.57;;;6.73;;
2191;SDS011;1102;49.718;11.902;2023-03-08T07:06:17;6.90;;;6.20;;
2191;SDS011;1102;49.718;11.902;2023-03-08T07:08:43;7.90;;;5.70;;
2191;SDS011;1102;49.718;11.902;2023-03-08T07:11:10;7.77;;;6.90;;
2191;SDS011;1102;49.718;11.902;2023-03-08T07:13:39;9.20;;;6.60;;
2191;SDS011;1102;49.718;11.902;2023-03-08T07:16:09;9.80;;;8.10;;
2191;SDS011;1102;49.718;11.902;2023-03-08T07:18:37;8.97;;;7.10;;
2191;SDS011;1102;49.718;11.902;2023-03-08T07:21:05;12.17;;;7.27;;
2191;SDS011;1102;49.718;11.902;2023-03-08T07:23:32;9.37;;;6.63;;
2191;SDS011;1102;49.718;11.902;2023-03-08T07:26:02;8.57;;;6.60;;
2191;SDS011;1102;49.718;11.902;2023-03-08T07:28:29;10.23;;;7.97;;
2191;SDS011;1102;49.718;11.902;2023-03-08T07:30:56;11.07;;;7.40;;
2191;SDS011;1102;49.718;11.902;2023-03-08T07:33:23;9.63;;;6.53;;
2191;SDS011;1102;49.718;11.902;2023-03-08T07:35:49;7.67;;;6.50;;
2191;SDS011;1102;49.718;11.902;2023-03-08T07:38:16;8.77;;;6.80;;
2191;SDS011;1102;49.718;11.902;2023-03-08T07:40:43;8.53;;;6.77;;
2191;SDS011;1102;49.718;11.902;2023-03-08T07:43:10;12.30;;;6.70;;
2191;SDS011;1102;49.718;11.902;2023-03-08T07:45:52;8.43;;;6.30;;
2191;SDS011;1102;49.718;11.902;2023-03-08T07:48:19;13.03;;;8.30;;
2191;SDS011;1102;49.718;11.902;2023-03-08T07:50:45;10.20;;;7.63;;
2191;SDS011;1102;49.718;11.902;2023-03-08T07:53:12;14.60;;;9.70;;
2191;SDS011;1102;49.718;11.902;2023-03-08T07:55:38;12.97;;;8.57;;
2191;SDS011;1102;49.718;11.902;2023-03-08T07:58:05;10.30;;;8.13;;
2191;SDS011;1102;49.718;11.902;2023-03-08T08:00:32;19.40;;;10.10;;
2191;SDS011;1102;49.718;11.902;2023-03-08T08:02:58;10.87;;;8.27;;
2191;SDS011;1102;49.718;11.902;2023-03-08T08:05:25;11.63;;;8.07;;
2191;SDS011;1102;49.718;11.902;2023-03-08T08:07:52;8.13;;;6.23;;
2191;SDS011;1102;49.718;11.902;2023-03-08T08:10:19;9.20;;;6.10;;
2191;SDS011;1102;49.718;11.902;2023-03-08T08:12:45;12.80;;;7.40;;
2191;SDS011;1102;49.718;11.902;2023-03-08T08:15:12;7.50;;;6.70;;
2191;SDS011;1102;49.718;11.902;2023-03-08T08:17:39;10.67;;;7.87;;
2191;SDS011;1102;49.718;11.902;2023-03-08T08:20:05;10.90;;;7.20;;
2191;SDS011;1102;49.718;11.902;2023-03-08T08:22:35;8.00;;;6.20;;
2191;SDS011;1102;49.718;11.902;2023-03-08T08:25:06;11.90;;;8.00;;
2191;SDS011;1102;49.718;11.902;2023-03-08T08:27:33;9.77;;;6.97;;
2191;SDS011;1102;49.718;11.902;2023-03-08T08:30:01;6.60;;;6.00;;
2191;SDS011;1102;49.718;11.902;2023-03-08T08:32:31;11.03;;;6.63;;
2191;SDS011;1102;49.718;11.902;2023-03-08T08:34:59;14.30;;;7.70;;
2191;SDS011;1102;49.718;11.902;2023-03-08T08:37:26;9.83;;;6.97;;
2191;SDS011;1102;49.718;11.902;2023-03-08T08:39:52;7.13;;;6.43;;
2191;SDS011;1102;49.718;11.902;2023-03-08T08:42:19;8.23;;;6.90;;
2191;SDS011;1102;49.718;11.902;2023-03-08T08:44:46;10.97;;;8.10;;
2191;SDS011;1102;49.718;11.902;2023-03-08T08:47:12;9.63;;;7.93;;
2191;SDS011;1102;49.718;11.902;2023-03-08T08:49:39;12.60;;;6.57;;
2191;SDS011;1102;49.718;11.902;2023-03-08T08:52:06;12.93;;;7.83;;
2191;SDS011;1102;49.718;11.902;2023-03-08T08:54:33;14.67;;;6.60;;
2191;SDS011;1102;49.718;11.902;2023-03-08T08:57:00;10.90;;;7.43;;
2191;SDS011;1102;49.718;11.902;2023-03-08T08:59:26;10.80;;;7.60;;
2191;SDS011;1102;49.718;11.902;2023-03-08T09:01:53;12.37;;;8.30;;
2191;SDS011;1102;49.718;11.902;2023-03-08T09:04:20;9.83;;;6.87;;
2191;SDS011;1102;49.718;11.902;2023-03-08T09:06:46;10.10;;;7.40;;
2191;SDS011;1102;49.718;11.902;2023-03-08T09:09:13;10.83;;;7.10;;
2191;SDS011;1102;49.718;11.902;2023-03-08T09:11:41;10.77;;;6.73;;
2191;SDS011;1102;49.718;11.902;2023-03-08T09:14:20;11.17;;;8.20;;
2191;SDS011;1102;49.718;11.902;2023-03-08T09:16:47;13.30;;;8.50;;
2191;SDS011;1102;49.718;11.902;2023-03-08T09:19:13;9.70;;;7.60;;
2191;SDS011;1102;49.718;11.902;2023-03-08T09:21:40;11.17;;;8.23;;
2191;SDS011;1102;49.718;11.902;2023-03-08T09:24:07;15.20;;;7.87;;
2191;SDS011;1102;49.718;11.902;2023-03-08T09:26:35;12.40;;;8.50;;
2191;SDS011;1102;49.718;11.902;2023-03-08T09:29:02;10.07;;;7.80;;
2191;SDS011;1102;49.718;11.902;2023-03-08T09:31:35;10.73;;;6.97;;
2191;SDS011;1102;49.718;11.902;2023-03-08T09:34:02;10.80;;;6.97;;
2191;SDS011;1102;49.718;11.902;2023-03-08T09:36:34;12.50;;;7.90;;
2191;SDS011;1102;49.718;11.902;2023-03-08T09:39:02;8.40;;;6.93;;
2191;SDS011;1102;49.718;11.902;2023-03-08T09:47:26;11.90;;;7.80;;
2191;SDS011;1102;49.718;11.902;2023-03-08T09:50:11;10.50;;;8.10;;
2191;SDS011;1102;49.718;11.902;2023-03-08T09:55:35;9.70;;;8.17;;
2191;SDS011;1102;49.718;11.902;2023-03-08T09:58:24;10.43;;;7.87;;
2191;SDS011;1102;49.718;11.902;2023-03-08T10:01:00;10.87;;;7.77;;
2191;SDS011;1102;49.718;11.902;2023-03-08T10:06:20;12.83;;;8.50;;
2191;SDS011;1102;49.718;11.902;2023-03-08T10:14:50;11.53;;;9.13;;
2191;SDS011;1102;49.718;11.902;2023-03-08T10:17:23;11.80;;;9.30;;
2191;SDS011;1102;49.718;11.902;2023-03-08T10:20:36;12.53;;;8.80;;
2191;SDS011;1102;49.718;11.902;2023-03-08T10:22:59;12.17;;;8.43;;
2191;SDS011;1102;49.718;11.902;2023-03-08T10:25:31;13.30;;;8.97;;
2191;SDS011;1102;49.718;11.902;2023-03-08T10:28:00;12.47;;;8.27;;
2191;SDS011;1102;49.718;11.902;2023-03-08T10:30:33;11.80;;;9.23;;
2191;SDS011;1102;49.718;11.902;2023-03-08T10:33:04;15.60;;;10.80;;
2191;SDS011;1102;49.718;11.902;2023-03-08T10:35:34;17.17;;;10.87;;
2191;SDS011;1102;49.718;11.902;2023-03-08T10:38:04;12.97;;;9.97;;
2191;SDS011;1102;49.718;11.902;2023-03-08T10:40:42;14.90;;;10.33;;
2191;SDS011;1102;49.718;11.902;2023-03-08T10:43:18;17.57;;;10.33;;
2191;SDS011;1102;49.718;11.902;2023-03-08T10:45:57;11.93;;;9.80;;
2191;SDS011;1102;49.718;11.902;2023-03-08T10:48:26;13.73;;;9.73;;
2191;SDS011;1102;49.718;11.902;2023-03-08T10:50:57;17.10;;;10.73;;
2191;SDS011;1102;49.718;11.902;2023-03-08T10:53:25;17.53;;;11.67;;
2191;SDS011;1102;49.718;11.902;2023-03-08T10:55:55;16.50;;;12.40;;
2191;SDS011;1102;49.718;11.902;2023-03-08T10:58:33;14.57;;;11.23;;
2191;SDS011;1102;49.718;11.902;2023-03-08T11:01:06;18.87;;;11.27;;
2191;SDS011;1102;49.718;11.902;2023-03-08T11:03:59;13.67;;;10.53;;
2191;SDS011;1102;49.718;11.902;2023-03-08T11:06:28;18.13;;;12.80;;
2191;SDS011;1102;49.718;11.902;2023-03-08T11:08:57;15.70;;;11.63;;
2191;SDS011;1102;49.718;11.902;2023-03-08T11:11:26;14.83;;;10.77;;
2191;SDS011;1102;49.718;11.902;2023-03-08T11:13:53;16.70;;;12.17;;
2191;SDS011;1102;49.718;11.902;2023-03-08T11:24:45;15.57;;;11.13;;
2191;SDS011;1102;49.718;11.902;2023-03-08T11:38:26;14.13;;;10.90;;
2191;SDS011;1102;49.718;11.902;2023-03-08T11:43:43;15.20;;;12.10;;
2191;SDS011;1102;49.718;11.902;2023-03-08T11:46:23;18.70;;;12.67;;
2191;SDS011;1102;49.718;11.902;2023-03-08T11:54:42;12.93;;;10.67;;
2191;SDS011;1102;49.718;11.902;2023-03-08T11:57:12;15.60;;;9.80;;
2191;SDS011;1102;49.718;11.902;2023-03-08T11:59:42;15.97;;;12.10;;
2191;SDS011;1102;49.718;11.902;2023-03-08T12:02:29;14.33;;;11.27;;
2191;SDS011;1102;49.718;11.902;2023-03-08T12:05:06;13.83;;;10.00;;
2191;SDS011;1102;49.718;11.902;2023-03-08T12:07:49;20.53;;;11.30;;
2191;SDS011;1102;49.718;11.902;2023-03-08T12:10:25;12.50;;;9.70;;
2191;SDS011;1102;49.718;11.902;2023-03-08T12:15:33;14.17;;;10.60;;
2191;SDS011;1102;49.718;11.902;2023-03-08T12:18:15;10.60;;;8.57;;
2191;SDS011;1102;49.718;11.902;2023-03-08T12:20:43;10.53;;;8.30;;
2191;SDS011;1102;49.718;11.902;2023-03-08T12:25:44;11.80;;;9.80;;
2191;SDS011;1102;49.718;11.902;2023-03-08T12:28:18;15.73;;;10.57;;
2191;SDS011;1102;49.718;11.902;2023-03-08T12:33:26;11.40;;;9.03;;
2191;SDS011;1102;49.718;11.902;2023-03-08T12:36:02;12.00;;;9.73;;
2191;SDS011;1102;49.718;11.902;2023-03-08T12:38:39;13.43;;;11.93;;
2191;SDS011;1102;49.718;11.902;2023-03-08T12:41:24;16.57;;;10.50;;
2191;SDS011;1102;49.718;11.902;2023-03-08T12:46:59;10.43;;;9.17;;
2191;SDS011;1102;49.718;11.902;2023-03-08T12:49:39;10.50;;;9.17;;
2191;SDS011;1102;49.718;11.902;2023-03-08T12:55:14;10.00;;;7.60;;
2191;SDS011;1102;49.718;11.902;2023-03-08T12:58:01;8.90;;;8.00;;
2191;SDS011;1102;49.718;11.902;2023-03-08T13:00:30;10.03;;;8.40;;
2191;SDS011;1102;49.718;11.902;2023-03-08T13:03:02;9.43;;;8.50;;
2191;SDS011;1102;49.718;11.902;2023-03-08T13:05:34;9.97;;;7.93;;
2191;SDS011;1102;49.718;11.902;2023-03-08T13:08:46;9.90;;;8.20;;
2191;SDS011;1102;49.718;11.902;2023-03-08T13:11:15;8.77;;;7.70;;
2191;SDS011;1102;49.718;11.902;2023-03-08T13:16:29;9.13;;;7.43;;
2191;SDS011;1102;49.718;11.902;2023-03-08T13:21:52;11.20;;;7.60;;
2191;SDS011;1102;49.718;11.902;2023-03-08T13:24:43;7.67;;;6.73;;
2191;SDS011;1102;49.718;11.902;2023-03-08T13:33:45;7.93;;;6.80;;
2191;SDS011;1102;49.718;11.902;2023-03-08T13:41:37;10.67;;;8.40;;
2191;SDS011;1102;49.718;11.902;2023-03-08T13:44:24;11.60;;;7.90;;
2191;SDS011;1102;49.718;11.902;2023-03-08T13:46:53;8.23;;;7.10;;
2191;SDS011;1102;49.718;11.902;2023-03-08T13:49:23;9.73;;;8.20;;
2191;SDS011;1102;49.718;11.902;2023-03-08T13:51:52;10.63;;;8.40;;
2191;SDS011;1102;49.718;11.902;2023-03-08T13:54:25;8.90;;;7.77;;
2191;SDS011;1102;49.718;11.902;2023-03-08T13:56:56;9.70;;;8.20;;
2191;SDS011;1102;49.718;11.902;2023-03-08T13:59:25;11.00;;;8.13;;
2191;SDS011;1102;49.718;11.902;2023-03-08T14:01:52;10.50;;;8.87;;
2191;SDS011;1102;49.718;11.902;2023-03-08T14:04:24;10.80;;;8.80;;
2191;SDS011;1102;49.718;11.902;2023-03-08T14:06:53;11.83;;;10.83;;
2191;SDS011;1102;49.718;11.902;2023-03-08T14:09:22;13.80;;;10.67;;
2191;SDS011;1102;49.718;11.902;2023-03-08T14:11:54;11.70;;;10.53;;
2191;SDS011;1102;49.718;11.902;2023-03-08T14:14:31;13.47;;;11.13;;
2191;SDS011;1102;49.718;11.902;2023-03-08T14:17:00;11.63;;;10.00;;
2191;SDS011;1102;49.718;11.902;2023-03-08T14:19:29;12.57;;;10.30;;
2191;SDS011;1102;49.718;11.902;2023-03-08T14:22:01;9.80;;;8.80;;
2191;SDS011;1102;49.718;11.902;2023-03-08T14:24:35;15.20;;;11.60;;
2191;SDS011;1102;49.718;11.902;2023-03-08T14:27:04;13.53;;;12.17;;
2191;SDS011;1102;49.718;11.902;2023-03-08T14:29:33;11.23;;;9.87;;
2191;SDS011;1102;49.718;11.902;2023-03-08T14:34:45;12.00;;;9.93;;
2191;SDS011;1102;49.718;11.902;2023-03-08T14:37:17;12.03;;;9.50;;
2191;SDS011;1102;49.718;11.902;2023-03-08T14:39:54;12.60;;;9.50;;
2191;SDS011;1102;49.718;11.902;2023-03-08T14:42:46;11.70;;;9.80;;
2191;SDS011;1102;49.718;11.902;2023-03-08T14:45:27;10.97;;;9.83;;
2191;SDS011;1102;49.718;11.902;2023-03-08T14:47:59;12.20;;;9.40;;
2191;SDS011;1102;49.718;11.902;2023-03-08T14:50:29;14.80;;;11.90;;
2191;SDS011;1102;49.718;11.902;2023-03-08T14:52:58;13.50;;;11.27;;
2191;SDS011;1102;49.718;11.902;2023-03-08T14:55:27;12.53;;;10.30;;
2191;SDS011;1102;49.718;11.902;2023-03-08T14:57:59;10.93;;;9.80;;
2191;SDS011;1102;49.718;11.902;2023-03-08T15:00:33;16.00;;;12.00;;
2191;SDS011;1102;49.718;11.902;2023-03-08T15:03:00;14.07;;;11.23;;
2191;SDS011;1102;49.718;11.902;2023-03-08T15:05:27;25.67;;;15.97;;
2191;SDS011;1102;49.718;11.902;2023-03-08T15:07:56;26.17;;;14.00;;
2191;SDS011;1102;49.718;11.902;2023-03-08T15:10:26;21.73;;;15.57;;
2191;SDS011;1102;49.718;11.902;2023-03-08T15:12:54;22.90;;;15.17;;
2191;SDS011;1102;49.718;11.902;2023-03-08T15:15:22;25.43;;;16.50;;
2191;SDS011;1102;49.718;11.902;2023-03-08T15:17:48;20.97;;;15.97;;
2191;SDS011;1102;49.718;11.902;2023-03-08T15:20:17;26.23;;;21.13;;
2191;SDS011;1102;49.718;11.902;2023-03-08T15:22:46;27.43;;;21.87;;
2191;SDS011;1102;49.718;11.902;2023-03-08T15:25:17;20.97;;;18.67;;
2191;SDS011;1102;49.718;11.902;2023-03-08T15:27:49;22.50;;;19.47;;
2191;SDS011;1102;49.718;11.902;2023-03-08T15:30:35;20.70;;;16.80;;
2191;SDS011;1102;49.718;11.902;2023-03-08T15:33:02;22.63;;;17.47;;
2191;SDS011;1102;49.718;11.902;2023-03-08T15:35:29;22.87;;;17.00;;
2191;SDS011;1102;49.718;11.902;2023-03-08T15:37:56;21.17;;;17.33;;
2191;SDS011;1102;49.718;11.902;2023-03-08T15:40:23;21.73;;;17.43;;
2191;SDS011;1102;49.718;11.902;2023-03-08T15:42:53;30.30;;;23.70;;
2191;SDS011;1102;49.718;11.902;2023-03-08T15:45:20;22.43;;;15.93;;
2191;SDS011;1102;49.718;11.902;2023-03-08T15:47:57;19.53;;;15.97;;
2191;SDS011;1102;49.718;11.902;2023-03-08T15:50:55;21.87;;;18.20;;
2191;SDS011;1102;49.718;11.902;2023-03-08T15:53:23;16.97;;;15.17;;
2191;SDS011;1102;49.718;11.902;2023-03-08T15:56:00;21.17;;;14.80;;
2191;SDS011;1102;49.718;11.902;2023-03-08T15:58:27;21.40;;;14.93;;
2191;SDS011;1102;49.718;11.902;2023-03-08T16:00:54;21.40;;;15.67;;
2191;SDS011;1102;49.718;11.902;2023-03-08T16:03:20;26.30;;;20.30;;
2191;SDS011;1102;49.718;11.902;2023-03-08T16:05:51;31.70;;;24.83;;
2191;SDS011;1102;49.718;11.902;2023-03-08T16:08:18;26.93;;;22.07;;
2191;SDS011;1102;49.718;11.902;2023-03-08T16:10:45;29.73;;;23.10;;
2191;SDS011;1102;49.718;11.902;2023-03-08T16:13:12;23.53;;;18.40;;
2191;SDS011;1102;49.718;11.902;2023-03-08T16:15:39;19.23;;;15.73;;
2191;SDS011;1102;49.718;11.902;2023-03-08T16:18:06;21.40;;;16.20;;
2191;SDS011;1102;49.718;11.902;2023-03-08T16:20:33;19.10;;;15.80;;
2191;SDS011;1102;49.718;11.902;2023-03-08T16:23:00;29.70;;;19.80;;
2191;SDS011;1102;49.718;11.902;2023-03-08T16:25:27;28.67;;;21.63;;
2191;SDS011;1102;49.718;11.902;2023-03-08T16:27:53;35.63;;;23.87;;
2191;SDS011;1102;49.718;11.902;2023-03-08T16:30:20;42.13;;;29.47;;
2191;SDS011;1102;49.718;11.902;2023-03-08T16:32:50;21.20;;;17.43;;
2191;SDS011;1102;49.718;11.902;2023-03-08T16:35:18;21.30;;;14.07;;